createdAt,value
2022-07-28T00:02:32.211Z,5.80
2022-07-28T00:07:34.907Z,6.10
2022-07-28T00:12:37.431Z,5.90
2022-07-28T00:17:39.984Z,5.80
2022-07-28T00:22:44.259Z,5.00
2022-07-28T00:27:46.867Z,5.05
2022-07-28T00:32:49.386Z,5.30
2022-07-28T00:37:51.895Z,5.35
2022-07-28T00:42:54.502Z,4.88
2022-07-28T00:47:57.005Z,5.13
2022-07-28T00:52:59.801Z,3.97
2022-07-28T00:58:02.665Z,4.63
2022-07-28T01:03:06.451Z,4.87
2022-07-28T01:08:36.237Z,5.30
2022-07-28T01:13:55.299Z,4.50
2022-07-28T01:19:34.239Z,4.05
2022-07-28T01:24:56.937Z,4.00
2022-07-28T01:30:08.304Z,4.78
2022-07-28T01:35:17.339Z,4.45
2022-07-28T01:40:25.598Z,4.53
2022-07-28T01:45:28.897Z,4.68
2022-07-28T01:50:32.123Z,4.50
2022-07-28T01:55:35.728Z,4.97
2022-07-28T02:00:39.190Z,4.57
2022-07-28T02:05:43.265Z,5.03
2022-07-28T02:11:05.944Z,4.88
2022-07-28T02:16:13.162Z,4.77
2022-07-28T02:21:16.133Z,5.53
2022-07-28T02:26:20.883Z,4.97
2022-07-28T02:31:44.336Z,4.60
2022-07-28T02:37:01.540Z,5.07
2022-07-28T02:42:13.632Z,4.78
2022-07-28T02:47:19.661Z,4.33
2022-07-28T02:52:26.401Z,5.43
2022-07-28T02:57:30.229Z,5.22
2022-07-28T03:02:34.803Z,6.22
2022-07-28T03:07:45.159Z,5.80
2022-07-28T03:12:55.330Z,6.22
2022-07-28T03:17:57.954Z,6.10
2022-07-28T03:23:01.129Z,6.67
2022-07-28T03:28:04.401Z,6.03
2022-07-28T03:33:07.676Z,6.07
2022-07-28T03:38:17.780Z,5.70
2022-07-28T03:43:23.178Z,5.53
2022-07-28T03:48:33.595Z,5.40
2022-07-28T03:53:36.316Z,5.55
2022-07-28T03:58:38.917Z,5.83
2022-07-28T04:03:44.302Z,5.43
2022-07-28T04:08:47.080Z,6.43
2022-07-28T04:13:50.106Z,5.53
2022-07-28T04:18:52.601Z,6.00
2022-07-28T04:23:59.800Z,5.63
2022-07-28T04:29:04.513Z,5.80
2022-07-28T04:34:07.072Z,6.17
2022-07-28T04:39:11.549Z,6.00
2022-07-28T04:44:14.404Z,5.65
2022-07-28T04:49:17.399Z,6.10
2022-07-28T04:54:24.519Z,6.38
2022-07-28T04:59:39.259Z,6.10
2022-07-28T05:04:42.571Z,6.73
2022-07-28T05:09:45.433Z,6.03
2022-07-28T05:14:48.059Z,6.40
2022-07-28T05:19:52.064Z,7.20
2022-07-28T05:24:54.677Z,6.80
2022-07-28T05:29:57.168Z,14.07
2022-07-28T05:34:59.767Z,6.95
2022-07-28T05:40:14.095Z,6.53
2022-07-28T05:45:17.707Z,6.70
2022-07-28T05:50:22.365Z,6.88
2022-07-28T05:55:26.562Z,6.83
2022-07-28T06:00:29.491Z,5.95
2022-07-28T06:05:32.686Z,6.10
2022-07-28T06:10:53.873Z,6.70
2022-07-28T06:15:56.701Z,6.33
2022-07-28T06:20:59.358Z,5.70
2022-07-28T06:26:02.020Z,5.93
2022-07-28T06:31:04.591Z,6.07
2022-07-28T06:36:07.309Z,5.53
2022-07-28T06:41:09.918Z,5.95
2022-07-28T06:46:14.641Z,5.87
2022-07-28T06:51:19.314Z,5.30
2022-07-28T06:56:22.250Z,5.88
2022-07-28T07:01:26.223Z,6.40
2022-07-28T07:06:28.748Z,5.90
2022-07-28T07:11:31.305Z,5.88
2022-07-28T07:16:35.234Z,5.57
2022-07-28T07:21:37.891Z,5.07
2022-07-28T07:26:40.714Z,5.03
2022-07-28T07:31:43.340Z,6.05
2022-07-28T07:36:46.075Z,5.83
2022-07-28T07:41:48.650Z,5.28
2022-07-28T07:46:51.351Z,4.18
2022-07-28T07:51:53.952Z,4.70
2022-07-28T07:56:56.485Z,4.17
2022-07-28T08:01:59.052Z,4.65
2022-07-28T08:07:01.622Z,4.70
2022-07-28T08:12:06.290Z,4.10
2022-07-28T08:17:08.879Z,4.43
2022-07-28T08:22:11.446Z,3.92
2022-07-28T08:27:13.974Z,3.07
2022-07-28T08:32:16.506Z,2.97
2022-07-28T08:37:19.202Z,3.58
2022-07-28T08:42:50.476Z,2.90
2022-07-28T08:48:07.907Z,3.57
2022-07-28T08:53:11.628Z,3.53
2022-07-28T08:58:14.650Z,3.50
2022-07-28T09:03:18.044Z,3.73
2022-07-28T09:08:21.152Z,3.75
2022-07-28T09:13:23.729Z,3.63
2022-07-28T09:18:26.562Z,2.93
2022-07-28T09:23:48.728Z,2.50
2022-07-28T09:28:57.049Z,3.88
2022-07-28T09:34:03.303Z,3.20
2022-07-28T09:39:05.854Z,3.27
2022-07-28T09:44:21.767Z,2.90
2022-07-28T09:49:43.022Z,3.35
2022-07-28T09:55:00.743Z,2.73
2022-07-28T10:00:07.209Z,3.20
2022-07-28T10:05:12.282Z,3.15
2022-07-28T10:10:14.792Z,3.00
2022-07-28T10:15:37.475Z,3.03
2022-07-28T10:20:40.242Z,3.50
2022-07-28T10:25:44.443Z,3.27
2022-07-28T10:30:48.509Z,3.10
2022-07-28T10:35:55.241Z,2.80
2022-07-28T10:40:59.813Z,3.42
2022-07-28T10:46:06.754Z,2.70
2022-07-28T10:51:10.870Z,3.13
2022-07-28T10:56:33.665Z,3.47
2022-07-28T11:01:49.034Z,3.57
2022-07-28T11:06:55.785Z,3.80
2022-07-28T11:11:59.053Z,5.57
2022-07-28T11:17:10.202Z,3.30
2022-07-28T11:22:19.174Z,4.47
2022-07-28T11:27:46.864Z,3.67
2022-07-28T11:32:55.672Z,3.58
2022-07-28T11:38:01.816Z,6.53
2022-07-28T11:43:36.471Z,3.30
2022-07-28T11:48:42.096Z,4.35
2022-07-28T11:53:49.479Z,3.13
2022-07-28T11:59:02.153Z,3.03
2022-07-28T12:04:14.948Z,3.20
2022-07-28T12:09:21.923Z,3.17
2022-07-28T12:14:30.113Z,3.07
2022-07-28T12:19:33.224Z,3.50
2022-07-28T12:24:44.646Z,3.60
2022-07-28T12:29:59.973Z,3.50
2022-07-28T12:35:05.594Z,3.58
2022-07-28T12:40:10.665Z,2.95
2022-07-28T12:45:13.730Z,4.13
2022-07-28T12:50:19.123Z,4.03
2022-07-28T12:55:24.163Z,4.25
2022-07-28T13:00:31.105Z,3.63
2022-07-28T13:05:57.000Z,2.70
2022-07-28T13:10:59.620Z,4.28
2022-07-28T13:16:17.936Z,3.70
2022-07-28T13:21:58.271Z,3.80
2022-07-28T13:27:03.931Z,3.28
2022-07-28T13:32:06.945Z,3.70
2022-07-28T13:37:09.878Z,3.87
2022-07-28T13:42:13.167Z,4.40
2022-07-28T13:47:17.272Z,3.88
2022-07-28T13:52:33.141Z,4.00
2022-07-28T13:57:37.775Z,4.00
2022-07-28T14:02:46.012Z,3.75
2022-07-28T14:07:49.453Z,3.97
2022-07-28T14:12:52.086Z,4.57
2022-07-28T14:17:54.658Z,4.32
2022-07-28T14:22:58.387Z,4.07
2022-07-28T14:28:00.904Z,4.27
2022-07-28T14:33:06.314Z,4.50
2022-07-28T14:43:32.705Z,4.00
2022-07-28T14:48:35.293Z,3.90
2022-07-28T14:53:40.049Z,4.60
2022-07-28T14:58:46.062Z,4.43
2022-07-28T15:03:48.584Z,3.87
2022-07-28T15:08:51.141Z,4.03
2022-07-28T15:13:53.766Z,4.57
2022-07-28T15:18:56.337Z,4.40
2022-07-28T15:23:59.081Z,4.22
2022-07-28T15:29:01.602Z,4.75
2022-07-28T15:34:04.716Z,4.43
2022-07-28T15:39:14.090Z,4.10
2022-07-28T15:44:17.205Z,4.60
2022-07-28T15:49:28.901Z,4.43
2022-07-28T15:54:31.489Z,4.40
2022-07-28T15:59:49.286Z,4.03
2022-07-28T16:04:54.285Z,3.95
2022-07-28T16:09:56.958Z,4.03
2022-07-28T16:14:59.702Z,4.68
2022-07-28T16:20:03.006Z,4.43
2022-07-28T16:25:07.607Z,3.93
2022-07-28T16:30:13.787Z,3.70
2022-07-28T16:35:16.365Z,4.03
2022-07-28T16:40:19.595Z,3.75
2022-07-28T16:45:22.214Z,3.63
2022-07-28T16:50:24.938Z,3.45
2022-07-28T16:55:27.899Z,3.63
2022-07-28T17:00:31.225Z,3.50
2022-07-28T17:05:34.011Z,4.75
2022-07-28T17:10:36.595Z,3.25
2022-07-28T17:15:39.636Z,3.50
2022-07-28T17:20:42.564Z,3.70
2022-07-28T17:26:20.825Z,3.47
2022-07-28T17:31:07.915Z,3.92
2022-07-28T17:36:10.546Z,3.87
2022-07-28T17:41:13.141Z,4.25
2022-07-28T17:46:15.766Z,3.45
2022-07-28T17:51:18.674Z,3.80
2022-07-28T17:56:21.756Z,4.65
2022-07-28T18:01:24.577Z,4.35
2022-07-28T18:06:37.111Z,4.70
2022-07-28T18:11:56.669Z,4.43
2022-07-28T18:17:00.767Z,3.80
2022-07-28T18:22:03.265Z,2.58
2022-07-28T18:27:05.877Z,1.93
2022-07-28T18:32:10.013Z,1.83
2022-07-28T18:37:13.072Z,1.83
2022-07-28T18:42:16.133Z,1.30
2022-07-28T18:47:18.670Z,1.10
2022-07-28T18:52:21.222Z,1.25
2022-07-28T18:57:23.881Z,1.23
2022-07-28T19:02:26.636Z,1.60
2022-07-28T19:07:30.243Z,1.67
2022-07-28T19:12:34.297Z,1.40
2022-07-28T19:17:37.068Z,1.20
2022-07-28T19:22:40.160Z,1.30
2022-07-28T19:27:42.802Z,1.27
2022-07-28T19:32:45.549Z,1.30
2022-07-28T19:37:48.661Z,1.10
2022-07-28T19:42:51.325Z,1.45
2022-07-28T19:47:54.843Z,1.90
2022-07-28T19:52:57.957Z,1.13
2022-07-28T19:58:00.624Z,1.70
2022-07-28T20:03:03.212Z,2.00
2022-07-28T20:08:06.102Z,2.53
2022-07-28T20:13:10.017Z,1.50
2022-07-28T20:18:12.656Z,1.20
2022-07-28T20:23:15.453Z,2.00
2022-07-28T20:28:18.162Z,2.03
2022-07-28T20:33:20.743Z,1.67
2022-07-28T20:38:23.544Z,2.00
2022-07-28T20:43:36.165Z,2.30
2022-07-28T20:48:40.235Z,2.65
2022-07-28T20:53:42.825Z,1.73
2022-07-28T20:58:45.380Z,2.20
2022-07-28T21:03:47.863Z,2.20
2022-07-28T21:08:50.451Z,1.90
2022-07-28T21:13:54.312Z,2.47
2022-07-28T21:18:57.311Z,2.05
2022-07-28T21:23:59.875Z,2.40
2022-07-28T21:29:12.499Z,2.23
2022-07-28T21:34:15.995Z,2.30
2022-07-28T21:39:18.832Z,2.03
2022-07-28T21:44:21.383Z,1.58
2022-07-28T21:49:24.047Z,2.00
2022-07-28T21:54:26.737Z,2.13
2022-07-28T21:59:29.301Z,2.30
2022-07-28T22:04:31.825Z,2.40
2022-07-28T22:09:37.901Z,1.92
2022-07-28T22:14:40.640Z,2.25
2022-07-28T22:19:43.169Z,2.20
2022-07-28T22:24:46.567Z,2.33
2022-07-28T22:29:52.089Z,2.28
2022-07-28T22:34:54.918Z,1.95
2022-07-28T22:39:57.432Z,2.43
2022-07-28T22:45:00.543Z,1.48
2022-07-28T22:50:03.657Z,2.00
2022-07-28T22:55:06.832Z,2.50
2022-07-28T23:00:09.984Z,1.77
2022-07-28T23:05:12.501Z,1.75
2022-07-28T23:10:15.099Z,1.90
2022-07-28T23:15:17.616Z,2.27
2022-07-28T23:20:20.197Z,1.90
2022-07-28T23:25:27.019Z,1.65
2022-07-28T23:30:29.522Z,1.83
2022-07-28T23:35:32.166Z,2.28
2022-07-28T23:40:34.893Z,2.60
2022-07-28T23:45:37.515Z,1.70
2022-07-28T23:50:40.698Z,2.08
2022-07-28T23:55:45.452Z,2.40
